createdAt,value
2019-05-22T00:01:25.310Z,0.20
2019-05-22T00:04:16.528Z,0.20
2019-05-22T00:06:49.972Z,0.10
2019-05-22T00:09:26.030Z,0.20
2019-05-22T00:11:58.786Z,0.28
2019-05-22T00:14:31.520Z,0.20
2019-05-22T00:17:03.003Z,0.28
2019-05-22T00:19:34.786Z,0.20
2019-05-22T00:22:11.352Z,0.20
2019-05-22T00:24:44.104Z,0.30
2019-05-22T00:27:16.745Z,0.20
2019-05-22T00:29:48.261Z,0.20
2019-05-22T00:32:20.473Z,0.30
2019-05-22T00:34:52.781Z,0.20
2019-05-22T00:37:23.898Z,0.10
2019-05-22T00:39:55.200Z,0.10
2019-05-22T00:42:27.198Z,0.23
2019-05-22T00:44:58.912Z,0.23
2019-05-22T00:47:33.644Z,0.10
2019-05-22T00:50:08.344Z,0.23
2019-05-22T00:53:00.138Z,0.30
2019-05-22T00:55:40.485Z,0.20
2019-05-22T00:58:14.286Z,0.37
2019-05-22T01:01:00.529Z,0.30
2019-05-22T01:03:33.681Z,0.50
2019-05-22T01:06:05.795Z,0.40
2019-05-22T01:08:38.028Z,0.42
2019-05-22T01:11:10.961Z,0.30
2019-05-22T01:13:42.837Z,0.50
2019-05-22T01:16:15.370Z,0.40
2019-05-22T01:18:47.749Z,0.40
2019-05-22T01:21:24.333Z,0.30
2019-05-22T01:23:59.917Z,0.10
2019-05-22T01:26:33.718Z,0.40
2019-05-22T01:29:05.878Z,0.33
2019-05-22T01:31:44.143Z,0.20
2019-05-22T01:34:20.588Z,0.40
2019-05-22T01:37:01.467Z,0.40
2019-05-22T01:39:52.805Z,0.40
2019-05-22T01:42:30.520Z,0.28
2019-05-22T01:45:06.503Z,0.17
2019-05-22T01:47:49.210Z,0.20
2019-05-22T01:50:40.942Z,0.30
2019-05-22T01:53:15.593Z,0.20
2019-05-22T01:55:55.820Z,0.30
2019-05-22T01:58:29.538Z,0.30
2019-05-22T02:01:03.115Z,0.33
2019-05-22T02:03:34.133Z,0.28
2019-05-22T02:06:07.130Z,0.30
2019-05-22T02:08:41.549Z,0.30
2019-05-22T02:11:14.621Z,0.20
2019-05-22T02:13:51.733Z,0.30
2019-05-22T02:16:24.095Z,0.40
2019-05-22T02:18:56.531Z,1.10
2019-05-22T02:21:28.018Z,0.47
2019-05-22T02:23:58.612Z,0.42
2019-05-22T02:26:30.471Z,0.20
2019-05-22T02:29:02.701Z,0.20
2019-05-22T02:31:33.619Z,0.20
2019-05-22T02:34:06.726Z,0.30
2019-05-22T02:36:39.612Z,0.20
2019-05-22T02:39:35.124Z,0.25
2019-05-22T02:42:12.689Z,0.25
2019-05-22T02:44:43.765Z,0.30
2019-05-22T02:47:20.517Z,0.28
2019-05-22T02:49:49.952Z,0.57
2019-05-22T02:52:22.290Z,0.40
2019-05-22T02:54:53.427Z,1.42
2019-05-22T02:57:26.264Z,3.17
2019-05-22T02:59:58.601Z,1.10
2019-05-22T03:02:30.039Z,0.30
2019-05-22T03:05:07.240Z,0.35
2019-05-22T03:07:39.830Z,5.12
2019-05-22T03:10:13.443Z,4.25
2019-05-22T03:12:45.517Z,1.30
2019-05-22T03:15:17.994Z,0.50
2019-05-22T03:17:51.259Z,0.40
2019-05-22T03:20:23.951Z,0.40
2019-05-22T03:23:31.244Z,0.72
2019-05-22T03:26:02.320Z,0.30
2019-05-22T03:28:33.806Z,0.55
2019-05-22T03:31:05.102Z,0.30
2019-05-22T03:33:36.698Z,1.37
2019-05-22T03:36:11.233Z,0.70
2019-05-22T03:38:42.544Z,0.33
2019-05-22T03:41:14.562Z,0.70
2019-05-22T03:43:48.427Z,0.55
2019-05-22T03:46:45.909Z,0.60
2019-05-22T03:49:30.094Z,0.88
2019-05-22T03:51:52.434Z,0.98
2019-05-22T03:54:24.069Z,0.70
2019-05-22T03:56:55.181Z,0.50
2019-05-22T03:59:25.813Z,0.40
2019-05-22T04:01:56.297Z,0.60
2019-05-22T04:04:36.482Z,0.90
2019-05-22T04:07:10.693Z,1.00
2019-05-22T04:09:42.977Z,0.68
2019-05-22T04:12:13.813Z,0.60
2019-05-22T04:14:46.544Z,0.60
2019-05-22T04:17:17.489Z,0.68
2019-05-22T04:19:51.462Z,0.60
2019-05-22T04:22:21.560Z,0.60
2019-05-22T04:24:51.819Z,0.68
2019-05-22T04:27:22.538Z,0.50
2019-05-22T04:29:53.842Z,0.82
2019-05-22T04:32:29.404Z,0.55
2019-05-22T04:35:00.202Z,0.50
2019-05-22T04:37:31.956Z,0.60
2019-05-22T04:40:55.682Z,0.42
2019-05-22T04:43:33.585Z,4.70
2019-05-22T04:46:06.325Z,5.92
2019-05-22T04:48:38.117Z,0.50
2019-05-22T04:51:25.008Z,0.62
2019-05-22T04:53:56.378Z,0.80
2019-05-22T04:56:28.327Z,0.93
2019-05-22T04:59:01.875Z,0.98
2019-05-22T05:01:32.518Z,1.30
2019-05-22T05:04:03.532Z,0.70
2019-05-22T05:06:36.134Z,0.70
2019-05-22T05:09:12.220Z,1.00
2019-05-22T05:11:43.686Z,0.90
2019-05-22T05:14:15.260Z,1.10
2019-05-22T05:16:46.821Z,1.02
2019-05-22T05:19:17.596Z,0.42
2019-05-22T05:21:48.079Z,0.30
2019-05-22T05:24:18.834Z,0.28
2019-05-22T05:26:51.920Z,0.30
2019-05-22T05:29:31.082Z,0.40
2019-05-22T05:32:02.647Z,0.50
2019-05-22T05:34:57.831Z,0.20
2019-05-22T05:37:28.665Z,0.20
2019-05-22T05:40:39.290Z,0.20
2019-05-22T05:43:16.028Z,0.40
2019-05-22T05:45:49.438Z,0.60
2019-05-22T05:48:22.466Z,0.33
2019-05-22T05:51:27.620Z,0.42
2019-05-22T05:54:15.186Z,0.50
2019-05-22T05:56:49.739Z,0.47
2019-05-22T05:59:23.011Z,0.37
2019-05-22T06:01:57.328Z,0.47
2019-05-22T06:04:35.496Z,0.30
2019-05-22T06:07:22.752Z,0.40
2019-05-22T06:10:40.676Z,0.57
2019-05-22T06:13:11.404Z,0.60
2019-05-22T06:16:29.159Z,0.78
2019-05-22T06:19:00.320Z,0.80
2019-05-22T06:21:31.475Z,1.00
2019-05-22T06:24:46.115Z,0.95
2019-05-22T06:27:23.144Z,0.90
2019-05-22T06:29:57.112Z,1.00
2019-05-22T06:33:05.548Z,0.60
2019-05-22T06:35:37.553Z,2.00
2019-05-22T06:38:40.129Z,1.00
2019-05-22T06:41:12.310Z,0.80
2019-05-22T06:44:36.882Z,0.60
2019-05-22T06:47:10.492Z,0.50
2019-05-22T06:49:43.233Z,0.60
2019-05-22T06:52:14.439Z,0.70
2019-05-22T06:54:45.349Z,0.50
2019-05-22T06:57:18.276Z,0.60
2019-05-22T07:00:10.797Z,0.37
2019-05-22T07:02:24.889Z,0.60
2019-05-22T07:04:55.804Z,0.60
2019-05-22T07:07:27.720Z,0.90
2019-05-22T07:09:58.882Z,1.50
2019-05-22T07:12:31.350Z,1.10
2019-05-22T07:15:23.036Z,0.55
2019-05-22T07:17:54.746Z,0.80
2019-05-22T07:20:27.389Z,0.78
2019-05-22T07:22:58.831Z,2.27
2019-05-22T07:25:31.096Z,0.90
2019-05-22T07:28:01.982Z,1.10
2019-05-22T07:30:33.782Z,2.50
2019-05-22T07:33:04.947Z,1.00
2019-05-22T07:35:56.491Z,1.20
2019-05-22T07:38:08.602Z,1.27
2019-05-22T07:40:41.011Z,1.17
2019-05-22T07:43:11.887Z,1.57
2019-05-22T07:45:42.474Z,2.20
2019-05-22T07:48:14.780Z,1.30
2019-05-22T07:50:49.390Z,1.25
2019-05-22T07:53:20.331Z,1.10
2019-05-22T07:55:52.501Z,1.10
2019-05-22T07:58:24.173Z,1.27
2019-05-22T08:00:56.569Z,0.90
2019-05-22T08:03:28.535Z,1.10
2019-05-22T08:06:00.093Z,1.00
2019-05-22T08:08:33.075Z,1.70
2019-05-22T08:11:04.792Z,9.25
2019-05-22T08:13:35.927Z,13.05
2019-05-22T08:16:08.401Z,1.92
2019-05-22T08:18:40.326Z,1.70
2019-05-22T08:21:11.670Z,1.00
2019-05-22T08:23:42.219Z,3.50
2019-05-22T08:26:14.763Z,1.10
2019-05-22T08:28:45.809Z,2.72
2019-05-22T08:31:19.955Z,1.90
2019-05-22T08:33:50.967Z,4.97
2019-05-22T08:36:22.594Z,1.92
2019-05-22T08:38:54.793Z,1.92
2019-05-22T08:41:31.882Z,6.30
2019-05-22T08:44:15.962Z,2.45
2019-05-22T08:46:35.854Z,1.80
2019-05-22T08:49:07.756Z,1.90
2019-05-22T08:51:38.328Z,2.90
2019-05-22T08:54:09.455Z,2.10
2019-05-22T08:56:42.943Z,2.37
2019-05-22T08:59:19.337Z,2.20
2019-05-22T09:01:46.961Z,2.02
2019-05-22T09:04:17.739Z,2.27
2019-05-22T09:06:48.355Z,2.87
2019-05-22T09:09:19.426Z,2.25
2019-05-22T09:11:49.958Z,2.20
2019-05-22T09:14:20.518Z,2.20
2019-05-22T09:16:53.139Z,1.95
2019-05-22T09:19:23.960Z,2.02
2019-05-22T09:21:57.189Z,1.90
2019-05-22T09:24:28.048Z,1.40
2019-05-22T09:27:02.629Z,1.27
2019-05-22T09:29:31.383Z,1.57
2019-05-22T09:32:04.167Z,1.37
2019-05-22T09:34:35.837Z,1.20
2019-05-22T09:37:06.773Z,1.80
2019-05-22T09:39:37.291Z,1.50
2019-05-22T09:42:07.889Z,1.72
2019-05-22T09:44:38.499Z,2.08
2019-05-22T09:47:09.628Z,3.17
2019-05-22T09:49:40.108Z,2.10
2019-05-22T09:52:12.290Z,1.50
2019-05-22T09:54:42.918Z,1.62
2019-05-22T09:57:13.906Z,1.40
2019-05-22T09:59:44.421Z,1.12
2019-05-22T10:02:15.152Z,1.47
2019-05-22T10:04:46.539Z,1.60
2019-05-22T10:07:17.330Z,1.35
2019-05-22T10:09:47.832Z,1.20
2019-05-22T10:12:18.378Z,1.30
2019-05-22T10:14:49.024Z,1.40
2019-05-22T10:17:19.948Z,1.37
2019-05-22T10:19:50.801Z,1.10
2019-05-22T10:22:21.930Z,1.40
2019-05-22T10:24:52.742Z,1.47
2019-05-22T10:27:23.721Z,1.50
2019-05-22T10:29:55.191Z,1.37
2019-05-22T10:32:31.635Z,1.67
2019-05-22T10:35:00.422Z,2.22
2019-05-22T10:37:31.211Z,1.40
2019-05-22T10:40:01.910Z,0.93
2019-05-22T10:42:32.692Z,0.93
2019-05-22T10:45:03.228Z,1.60
2019-05-22T10:47:34.504Z,1.60
2019-05-22T10:50:06.498Z,1.55
2019-05-22T10:52:37.507Z,1.50
2019-05-22T10:55:11.278Z,1.62
2019-05-22T10:57:43.446Z,1.40
2019-05-22T11:00:15.996Z,1.77
2019-05-22T11:02:46.782Z,1.42
2019-05-22T11:05:19.468Z,2.12
2019-05-22T11:07:50.342Z,1.60
2019-05-22T11:10:22.864Z,1.72
2019-05-22T11:12:54.888Z,1.60
2019-05-22T11:15:26.152Z,2.12
2019-05-22T11:17:57.627Z,2.20
2019-05-22T11:20:28.491Z,2.33
2019-05-22T11:22:59.324Z,2.40
2019-05-22T11:25:30.455Z,2.00
2019-05-22T11:28:01.148Z,2.25
2019-05-22T11:30:31.959Z,1.82
2019-05-22T11:33:03.474Z,2.00
2019-05-22T11:35:33.962Z,2.30
2019-05-22T11:38:04.879Z,2.40
2019-05-22T11:40:35.737Z,2.40
2019-05-22T11:43:06.621Z,2.50
2019-05-22T11:45:37.323Z,2.20
2019-05-22T11:48:08.316Z,1.82
2019-05-22T11:50:39.698Z,1.92
2019-05-22T11:53:10.953Z,2.00
2019-05-22T11:55:45.578Z,2.00
2019-05-22T11:58:14.802Z,1.70
2019-05-22T12:00:45.645Z,1.77
2019-05-22T12:03:16.670Z,1.95
2019-05-22T12:05:47.859Z,1.90
2019-05-22T12:08:18.349Z,1.80
2019-05-22T12:10:51.572Z,1.98
2019-05-22T12:13:22.675Z,1.85
2019-05-22T12:15:54.742Z,1.80
2019-05-22T12:18:26.757Z,1.60
2019-05-22T12:20:57.327Z,1.80
2019-05-22T12:23:28.392Z,1.70
2019-05-22T12:25:59.026Z,1.27
2019-05-22T12:28:29.733Z,1.60
2019-05-22T12:31:00.861Z,1.50
2019-05-22T12:33:32.331Z,1.40
2019-05-22T12:36:03.470Z,1.70
2019-05-22T12:38:34.561Z,3.20
2019-05-22T12:41:05.194Z,1.67
2019-05-22T12:43:35.790Z,1.77
2019-05-22T12:46:06.462Z,1.60
2019-05-22T12:48:38.421Z,1.90
2019-05-22T12:51:09.634Z,1.90
2019-05-22T12:53:40.414Z,2.10
2019-05-22T12:56:11.157Z,1.80
2019-05-22T12:58:41.677Z,1.60
2019-05-22T13:01:12.341Z,2.20
2019-05-22T13:03:43.480Z,2.33
2019-05-22T13:06:14.060Z,1.90
2019-05-22T13:08:45.305Z,2.30
2019-05-22T13:11:15.990Z,2.17
2019-05-22T13:13:46.977Z,2.08
2019-05-22T13:16:17.809Z,2.40
2019-05-22T13:18:50.244Z,2.42
2019-05-22T13:21:22.483Z,6.12
2019-05-22T13:23:54.426Z,2.35
2019-05-22T13:26:25.352Z,2.10
2019-05-22T13:28:57.431Z,1.52
2019-05-22T13:31:29.610Z,1.30
2019-05-22T13:34:00.498Z,1.70
2019-05-22T13:36:30.949Z,1.60
2019-05-22T13:39:01.987Z,1.50
2019-05-22T13:41:33.893Z,1.37
2019-05-22T13:44:05.628Z,1.30
2019-05-22T13:46:36.835Z,1.60
2019-05-22T13:49:08.191Z,1.50
2019-05-22T13:51:39.707Z,1.92
2019-05-22T13:54:11.228Z,1.67
2019-05-22T13:56:42.637Z,1.65
2019-05-22T13:59:14.160Z,1.60
2019-05-22T14:01:45.217Z,1.90
2019-05-22T14:04:16.054Z,1.60
2019-05-22T14:06:47.777Z,1.80
2019-05-22T14:09:21.407Z,1.90
2019-05-22T14:11:54.003Z,1.60
2019-05-22T14:14:25.176Z,1.92
2019-05-22T14:16:55.874Z,2.10
2019-05-22T14:19:26.452Z,1.90
2019-05-22T14:21:57.148Z,1.80
2019-05-22T14:24:27.904Z,2.42
2019-05-22T14:26:58.596Z,3.20
2019-05-22T14:29:29.478Z,2.00
2019-05-22T14:32:00.412Z,1.82
2019-05-22T14:34:32.057Z,2.00
2019-05-22T14:37:03.246Z,1.67
2019-05-22T14:39:34.335Z,2.33
2019-05-22T14:42:06.415Z,2.10
2019-05-22T14:44:37.169Z,2.42
2019-05-22T14:47:14.676Z,2.37
2019-05-22T14:49:40.641Z,2.60
2019-05-22T14:52:11.257Z,2.92
2019-05-22T14:54:41.884Z,3.08
2019-05-22T14:57:14.351Z,3.40
2019-05-22T14:59:45.257Z,3.70
2019-05-22T15:02:15.944Z,2.90
2019-05-22T15:04:47.286Z,2.27
2019-05-22T15:07:17.760Z,2.80
2019-05-22T15:09:48.270Z,3.50
2019-05-22T15:12:19.053Z,4.22
2019-05-22T15:14:49.679Z,3.75
2019-05-22T15:17:31.856Z,2.92
2019-05-22T15:19:52.931Z,3.45
2019-05-22T15:22:23.561Z,4.05
2019-05-22T15:24:54.628Z,2.90
2019-05-22T15:27:25.293Z,4.28
2019-05-22T15:29:55.913Z,4.55
2019-05-22T15:32:27.621Z,4.00
2019-05-22T15:34:58.285Z,2.90
2019-05-22T15:37:29.533Z,5.42
2019-05-22T15:40:01.263Z,3.65
2019-05-22T15:42:37.462Z,4.00
2019-05-22T15:45:10.866Z,3.98
2019-05-22T15:47:54.810Z,3.33
2019-05-22T15:50:17.457Z,4.12
2019-05-22T15:52:55.261Z,3.33
2019-05-22T15:55:26.488Z,2.60
2019-05-22T15:58:00.598Z,3.12
2019-05-22T16:00:34.513Z,3.50
2019-05-22T16:03:11.816Z,4.00
2019-05-22T16:05:44.866Z,3.58
2019-05-22T16:08:15.845Z,3.20
2019-05-22T16:10:48.792Z,3.77
2019-05-22T16:13:22.691Z,4.15
2019-05-22T16:15:55.639Z,3.52
2019-05-22T16:18:31.938Z,4.10
2019-05-22T16:21:05.622Z,4.03
2019-05-22T16:23:38.616Z,4.50
2019-05-22T16:26:11.664Z,18.57
2019-05-22T16:28:45.837Z,28.07
2019-05-22T16:31:18.111Z,16.55
2019-05-22T16:33:50.206Z,4.97
2019-05-22T16:36:20.971Z,4.28
2019-05-22T16:38:52.226Z,6.60
2019-05-22T16:41:24.440Z,7.12
2019-05-22T16:43:55.867Z,11.70
2019-05-22T16:46:27.036Z,6.47
2019-05-22T16:48:58.707Z,6.10
2019-05-22T16:51:30.504Z,5.65
2019-05-22T16:54:08.559Z,4.83
2019-05-22T16:56:40.539Z,5.08
2019-05-22T16:59:13.285Z,4.90
2019-05-22T17:01:57.732Z,6.00
2019-05-22T17:04:17.268Z,6.00
2019-05-22T17:06:48.473Z,6.10
2019-05-22T17:09:19.508Z,5.28
2019-05-22T17:11:50.927Z,7.17
2019-05-22T17:14:24.938Z,8.18
2019-05-22T17:16:55.594Z,5.62
2019-05-22T17:19:28.059Z,5.37
2019-05-22T17:22:00.032Z,5.72
2019-05-22T17:24:34.020Z,5.62
2019-05-22T17:27:04.774Z,7.55
2019-05-22T17:29:36.498Z,6.90
2019-05-22T17:32:08.231Z,5.05
2019-05-22T17:34:39.979Z,5.85
2019-05-22T17:37:15.703Z,5.00
2019-05-22T17:39:49.283Z,6.40
2019-05-22T17:42:23.318Z,5.10
2019-05-22T17:44:54.077Z,5.20
2019-05-22T17:47:27.844Z,5.42
2019-05-22T17:50:01.410Z,4.72
2019-05-22T17:52:32.795Z,5.17
2019-05-22T17:55:04.651Z,6.67
2019-05-22T17:57:38.842Z,5.03
2019-05-22T18:00:15.725Z,6.42
2019-05-22T18:02:46.179Z,7.33
2019-05-22T18:05:18.734Z,6.97
2019-05-22T18:07:49.883Z,7.28
2019-05-22T18:10:21.493Z,6.28
2019-05-22T18:12:51.863Z,7.70
2019-05-22T18:15:23.254Z,7.65
2019-05-22T18:17:54.014Z,7.95
2019-05-22T18:20:25.504Z,7.60
2019-05-22T18:22:55.696Z,7.00
2019-05-22T18:25:26.311Z,10.65
2019-05-22T18:27:56.687Z,11.00
2019-05-22T18:30:28.713Z,7.72
2019-05-22T18:32:59.151Z,6.53
2019-05-22T18:35:29.534Z,7.05
2019-05-22T18:38:04.153Z,6.87
2019-05-22T18:40:33.376Z,5.95
2019-05-22T18:43:04.216Z,7.17
2019-05-22T18:45:35.101Z,6.80
2019-05-22T18:48:06.369Z,7.85
2019-05-22T18:50:39.494Z,8.53
2019-05-22T18:53:10.397Z,8.83
2019-05-22T18:55:40.882Z,7.28
2019-05-22T18:58:11.610Z,7.47
2019-05-22T19:00:43.162Z,7.83
2019-05-22T19:03:14.113Z,10.60
2019-05-22T19:05:44.789Z,9.80
2019-05-22T19:08:15.511Z,11.03
2019-05-22T19:10:46.628Z,11.00
2019-05-22T19:13:18.654Z,9.60
2019-05-22T19:15:50.464Z,10.20
2019-05-22T19:18:21.325Z,9.45
2019-05-22T19:20:51.904Z,8.70
2019-05-22T19:23:22.443Z,8.55
2019-05-22T19:25:53.062Z,11.40
2019-05-22T19:28:41.767Z,9.13
2019-05-22T19:30:56.177Z,8.60
2019-05-22T19:33:27.064Z,10.15
2019-05-22T19:35:57.787Z,9.28
2019-05-22T19:38:29.560Z,8.30
2019-05-22T19:41:00.456Z,8.38
2019-05-22T19:43:31.259Z,9.88
2019-05-22T19:46:02.191Z,10.65
2019-05-22T19:48:32.938Z,9.75
2019-05-22T19:51:04.181Z,9.25
2019-05-22T19:53:36.155Z,10.35
2019-05-22T19:56:07.597Z,11.15
2019-05-22T19:58:38.390Z,12.80
2019-05-22T20:01:09.694Z,11.28
2019-05-22T20:03:40.619Z,10.90
2019-05-22T20:06:12.606Z,10.93
2019-05-22T20:08:45.467Z,11.33
2019-05-22T20:11:16.575Z,9.58
2019-05-22T20:13:47.017Z,9.48
2019-05-22T20:16:17.531Z,10.70
2019-05-22T20:18:48.267Z,8.80
2019-05-22T20:21:19.152Z,10.15
2019-05-22T20:23:49.945Z,11.63
2019-05-22T20:26:22.224Z,9.10
2019-05-22T20:28:52.813Z,11.03
2019-05-22T20:31:23.345Z,10.50
2019-05-22T20:33:54.419Z,10.72
2019-05-22T20:36:25.183Z,9.80
2019-05-22T20:38:56.043Z,9.18
2019-05-22T20:41:26.606Z,10.00
2019-05-22T20:44:01.330Z,10.18
2019-05-22T20:46:37.556Z,11.08
2019-05-22T20:49:08.852Z,11.22
2019-05-22T20:51:39.959Z,11.43
2019-05-22T20:54:11.501Z,41.10
2019-05-22T20:56:46.111Z,15.72
2019-05-22T20:59:17.513Z,14.50
2019-05-22T21:01:49.268Z,11.88
2019-05-22T21:04:22.581Z,10.28
2019-05-22T21:07:01.227Z,10.53
2019-05-22T21:09:32.452Z,9.35
2019-05-22T21:12:03.365Z,9.33
2019-05-22T21:14:34.031Z,7.87
2019-05-22T21:17:06.189Z,8.60
2019-05-22T21:19:37.592Z,8.33
2019-05-22T21:22:08.362Z,9.73
2019-05-22T21:24:40.923Z,9.30
2019-05-22T21:27:11.618Z,9.83
2019-05-22T21:29:42.212Z,10.53
2019-05-22T21:32:14.520Z,9.15
2019-05-22T21:34:44.915Z,9.30
2019-05-22T21:37:16.102Z,10.55
2019-05-22T21:39:47.459Z,8.08
2019-05-22T21:42:18.079Z,10.72
2019-05-22T21:44:48.507Z,13.68
2019-05-22T21:47:20.565Z,10.98
2019-05-22T21:49:52.346Z,10.68
2019-05-22T21:52:23.178Z,10.50
2019-05-22T21:54:55.101Z,12.28
2019-05-22T21:57:25.765Z,11.83
2019-05-22T21:59:56.760Z,13.10
2019-05-22T22:02:33.842Z,14.47
2019-05-22T22:05:06.186Z,12.53
2019-05-22T22:07:36.833Z,13.98
2019-05-22T22:10:09.807Z,16.52
2019-05-22T22:12:41.617Z,13.00
2019-05-22T22:15:13.246Z,11.75
2019-05-22T22:17:45.648Z,12.23
2019-05-22T22:20:16.764Z,13.18
2019-05-22T22:22:49.408Z,10.48
2019-05-22T22:25:22.109Z,10.65
2019-05-22T22:27:52.597Z,17.70
2019-05-22T22:30:36.242Z,22.67
2019-05-22T22:33:10.033Z,34.53
2019-05-22T22:35:41.391Z,18.50
2019-05-22T22:38:15.812Z,19.12
2019-05-22T22:40:48.034Z,16.60
2019-05-22T22:43:21.403Z,17.30
2019-05-22T22:46:01.778Z,18.10
2019-05-22T22:48:34.847Z,13.98
2019-05-22T22:51:09.099Z,12.78
2019-05-22T22:53:39.728Z,10.08
2019-05-22T22:56:11.789Z,14.25
2019-05-22T22:58:42.793Z,11.75
2019-05-22T23:01:21.044Z,13.08
2019-05-22T23:03:56.752Z,14.83
2019-05-22T23:06:28.386Z,14.98
2019-05-22T23:09:00.745Z,14.30
2019-05-22T23:11:32.653Z,14.30
2019-05-22T23:14:04.441Z,14.70
2019-05-22T23:16:36.093Z,15.30
2019-05-22T23:19:38.096Z,15.63
2019-05-22T23:22:10.208Z,13.38
2019-05-22T23:24:43.246Z,15.23
2019-05-22T23:27:15.677Z,13.60
2019-05-22T23:29:46.932Z,12.33
2019-05-22T23:32:20.332Z,12.00
2019-05-22T23:34:51.069Z,13.08
2019-05-22T23:37:22.198Z,9.20
2019-05-22T23:39:53.956Z,12.80
2019-05-22T23:42:34.938Z,13.65
2019-05-22T23:45:10.394Z,13.15
2019-05-22T23:48:01.018Z,12.33
2019-05-22T23:50:35.277Z,13.88
2019-05-22T23:53:05.949Z,14.65
2019-05-22T23:55:37.109Z,14.78
2019-05-22T23:58:08.659Z,13.45
